Time;durP1;ratioP1;P1;durP2;ratioP2;P2;SDS_P1;SDS_P2;PMS_P1;PMS_P2;Temp;Humidity;BMP_temperature;BMP_pressure;BME280_temperature;BME280_humidity;BME280_pressure;Samples;Min_cycle;Max_cycle;Signal;HPM_P1;HPM_P2
2021/01/18 00:02:20;;;;;;;30.77;15.50;;;;;;;-3.41;32.00;100625.00;1815971;79;22221;-76
2021/01/18 00:04:49;;;;;;;31.82;15.18;;;;;;;-3.41;31.97;100632.86;1815904;79;21161;-76
2021/01/18 00:07:17;;;;;;;30.23;13.90;;;;;;;-3.42;31.92;100633.78;1816464;79;21149;-77
2021/01/18 00:09:48;;;;;;;30.25;14.73;;;;;;;-3.46;31.98;100633.05;1816463;78;21164;-77
2021/01/18 00:12:16;;;;;;;30.70;14.23;;;;;;;-3.47;31.87;100633.13;1816558;78;21675;-76
2021/01/18 00:14:44;;;;;;;32.13;15.58;;;;;;;-3.50;31.89;100641.95;1816453;78;22101;-78
2021/01/18 00:17:12;;;;;;;30.37;16.12;;;;;;;-3.52;31.87;100632.02;1816149;79;21164;-76
2021/01/18 00:19:40;;;;;;;35.33;15.83;;;;;;;-3.54;31.84;100631.25;1816399;79;21149;-76
2021/01/18 00:22:08;;;;;;;37.93;17.12;;;;;;;-3.50;31.81;100629.33;1816536;78;21599;-76
2021/01/18 00:24:36;;;;;;;33.50;15.70;;;;;;;-3.50;31.75;100628.02;1816564;79;21703;-76
2021/01/18 00:27:04;;;;;;;33.65;17.17;;;;;;;-3.51;31.72;100622.39;1816180;79;21646;-76
2021/01/18 00:29:33;;;;;;;30.57;15.20;;;;;;;-3.57;31.69;100613.03;1816117;78;21200;-78
2021/01/18 00:32:01;;;;;;;33.80;16.30;;;;;;;-3.60;31.71;100628.86;1816549;78;21194;-79
2021/01/18 00:34:29;;;;;;;35.78;17.98;;;;;;;-3.63;31.78;100626.39;1816432;79;21169;-76
2021/01/18 00:36:57;;;;;;;32.33;16.40;;;;;;;-3.65;31.76;100632.98;1816413;78;21171;-78
2021/01/18 00:39:25;;;;;;;32.80;15.58;;;;;;;-3.66;31.75;100624.74;1816576;79;21653;-77
2021/01/18 00:41:53;;;;;;;37.93;19.45;;;;;;;-3.65;31.70;100626.44;1816523;78;21168;-76
2021/01/18 00:44:21;;;;;;;39.90;17.77;;;;;;;-3.65;31.71;100624.28;1816365;79;21168;-78
2021/01/18 00:46:49;;;;;;;34.43;17.00;;;;;;;-3.67;31.73;100615.19;1816426;78;21719;-77
2021/01/18 00:49:17;;;;;;;36.60;16.90;;;;;;;-3.66;31.73;100619.51;1786350;79;21157;-78
2021/01/18 00:51:45;;;;;;;34.75;16.25;;;;;;;-3.66;31.65;100623.44;1816060;79;21212;-77
2021/01/18 00:54:13;;;;;;;34.98;17.57;;;;;;;-3.68;31.63;100629.20;1816470;79;21129;-78
2021/01/18 00:56:43;;;;;;;40.70;19.10;;;;;;;-3.73;31.57;100632.44;1815760;79;21208;-77
2021/01/18 00:59:13;;;;;;;34.45;18.70;;;;;;;-3.75;31.61;100636.05;1816071;79;21140;-77
2021/01/18 01:01:42;;;;;;;36.95;17.90;;;;;;;-3.76;31.69;100636.52;1816084;79;21208;-77
2021/01/18 01:04:11;;;;;;;39.42;18.65;;;;;;;-3.74;31.72;100632.05;1787232;79;22137;-77
2021/01/18 01:06:39;;;;;;;47.60;22.90;;;;;;;-3.71;31.72;100631.09;1816525;78;21117;-77
2021/01/18 01:09:07;;;;;;;44.27;20.40;;;;;;;-3.70;31.76;100628.40;1816533;78;21113;-76
2021/01/18 01:11:42;;;;;;;48.78;23.65;;;;;;;-3.67;31.79;100632.21;1816474;79;21165;-77
2021/01/18 01:14:11;;;;;;;45.83;21.90;;;;;;;-3.68;31.85;100634.44;1815554;79;21121;-76
2021/01/18 01:16:44;;;;;;;51.55;24.55;;;;;;;-3.66;31.95;100635.67;1816439;78;22309;-76
2021/01/18 01:19:12;;;;;;;56.88;25.95;;;;;;;-3.64;31.97;100634.67;1787708;79;21635;-77
2021/01/18 01:21:40;;;;;;;48.08;22.62;;;;;;;-3.61;31.98;100634.56;1816651;79;21473;-76
2021/01/18 01:24:08;;;;;;;50.58;23.98;;;;;;;-3.58;31.97;100640.14;1787206;79;21133;-77
2021/01/18 01:26:37;;;;;;;50.95;23.22;;;;;;;-3.61;31.96;100637.64;1816509;79;21173;-76
2021/01/18 01:29:05;;;;;;;46.65;23.15;;;;;;;-3.62;32.04;100638.10;1816479;79;21360;-78
2021/01/18 01:31:33;;;;;;;50.73;24.87;;;;;;;-3.60;32.03;100631.48;1816236;79;21054;-75
2021/01/18 01:34:02;;;;;;;50.58;25.23;;;;;;;-3.58;32.04;100634.44;1816577;79;21203;-79
2021/01/18 01:36:30;;;;;;;47.93;24.72;;;;;;;-3.58;32.06;100630.52;1816329;79;21505;-76
2021/01/18 01:38:58;;;;;;;47.27;23.52;;;;;;;-3.59;32.04;100627.94;1816862;79;21161;-76
2021/01/18 01:41:26;;;;;;;49.33;22.17;;;;;;;-3.63;32.04;100626.39;1816508;79;21366;-76
2021/01/18 01:43:54;;;;;;;43.48;20.17;;;;;;;-3.67;32.07;100626.97;1816576;79;21193;-76
2021/01/18 01:46:21;;;;;;;45.78;23.20;;;;;;;-3.72;32.11;100626.31;1816396;79;21192;-77
2021/01/18 01:48:49;;;;;;;49.08;23.92;;;;;;;-3.77;32.19;100625.66;1816861;79;21114;-77
2021/01/18 01:51:18;;;;;;;50.55;23.98;;;;;;;-3.78;32.19;100625.23;1816410;78;21165;-77
2021/01/18 01:53:46;;;;;;;48.50;22.95;;;;;;;-3.79;32.24;100626.63;1816439;79;21654;-77
2021/01/18 01:56:14;;;;;;;52.53;23.57;;;;;;;-3.79;32.26;100626.16;1816133;78;21130;-77
2021/01/18 01:58:42;;;;;;;50.38;23.30;;;;;;;-3.79;32.31;100622.23;1816176;79;21612;-77
2021/01/18 02:01:10;;;;;;;50.83;22.87;;;;;;;-3.80;32.31;100625.77;1816134;78;21041;-76
2021/01/18 02:03:41;;;;;;;50.58;22.87;;;;;;;-3.82;32.32;100627.13;1816199;78;21193;-77
2021/01/18 02:06:09;;;;;;;54.35;24.50;;;;;;;-3.85;32.36;100633.81;1816407;79;22030;-77
2021/01/18 02:08:37;;;;;;;56.18;24.35;;;;;;;-3.86;32.37;100639.97;1816250;79;21400;-75
2021/01/18 02:11:06;;;;;;;49.45;24.57;;;;;;;-3.86;32.41;100633.42;1816359;79;21062;-75
2021/01/18 02:13:45;;;;;;;51.10;24.82;;;;;;;-3.83;32.43;100622.81;1816296;79;21197;-76
2021/01/18 02:16:28;;;;;;;51.83;22.58;;;;;;;-3.81;32.39;100629.31;1816385;79;21563;-75
2021/01/18 02:19:20;;;;;;;49.58;21.37;;;;;;;-3.80;32.34;100632.78;1816688;79;21199;-77
2021/01/18 02:22:39;;;;;;;44.00;20.77;;;;;;;-3.84;32.35;100638.59;1816518;78;21532;-77
2021/01/18 02:25:36;;;;;;;41.05;18.85;;;;;;;-3.88;32.34;100635.70;1816771;79;21109;-76
2021/01/18 02:28:19;;;;;;;42.75;20.17;;;;;;;-3.91;32.25;100636.66;1816935;78;21102;-77
2021/01/18 02:31:12;;;;;;;38.45;18.80;;;;;;;-3.93;32.15;100638.96;1816668;79;21169;-76
2021/01/18 02:34:31;;;;;;;35.98;17.00;;;;;;;-3.93;32.07;100639.81;1816375;79;21204;-76
2021/01/18 02:37:30;;;;;;;35.90;16.63;;;;;;;-3.92;32.05;100648.05;1816469;79;21192;-77
2021/01/18 02:40:09;;;;;;;39.80;18.40;;;;;;;-3.93;31.95;100648.97;1816496;79;21159;-77
2021/01/18 02:42:52;;;;;;;38.83;17.57;;;;;;;-3.96;32.03;100643.00;1816392;79;21016;-76
2021/01/18 02:45:22;;;;;;;38.65;18.07;;;;;;;-3.95;32.07;100653.86;1816454;79;21156;-76
2021/01/18 02:47:50;;;;;;;42.83;19.07;;;;;;;-3.96;32.05;100654.31;1787318;79;21204;-77
2021/01/18 02:50:19;;;;;;;43.87;20.65;;;;;;;-3.96;32.00;100644.31;1816247;78;21161;-76
2021/01/18 02:52:49;;;;;;;46.02;21.12;;;;;;;-3.97;32.00;100642.16;1816523;79;21664;-77
2021/01/18 02:55:16;;;;;;;37.42;17.60;;;;;;;-3.96;31.99;100642.54;1816306;79;21105;-75
2021/01/18 02:57:48;;;;;;;36.98;18.07;;;;;;;-3.96;31.93;100633.84;1816070;78;21188;-79
2021/01/18 03:00:24;;;;;;;35.00;16.65;;;;;;;-3.96;31.78;100635.15;1816169;79;21436;-77
2021/01/18 03:03:16;;;;;;;34.85;16.55;;;;;;;-3.94;31.70;100637.27;1816545;78;21208;-78
2021/01/18 03:06:09;;;;;;;38.78;18.85;;;;;;;-3.98;31.66;100635.69;1814167;79;21162;-78
2021/01/18 03:08:41;;;;;;;33.15;17.40;;;;;;;-4.02;31.72;100634.10;1816347;79;21421;-79
2021/01/18 03:11:19;;;;;;;36.77;18.05;;;;;;;-4.06;31.71;100645.59;1816199;79;21122;-75
2021/01/18 03:14:02;;;;;;;39.15;18.10;;;;;;;-4.06;31.78;100640.37;1816408;78;22227;-78
2021/01/18 03:16:37;;;;;;;34.08;15.70;;;;;;;-4.07;31.78;100639.97;1815871;79;21177;-76
2021/01/18 03:19:06;;;;;;;36.00;17.37;;;;;;;-4.10;31.77;100643.09;1816095;78;21312;-77
2021/01/18 03:21:34;;;;;;;38.88;18.02;;;;;;;-4.12;31.83;100644.93;1816054;79;21169;-76
2021/01/18 03:24:02;;;;;;;35.50;16.27;;;;;;;-4.11;31.84;100645.32;1816108;79;21188;-77
2021/01/18 03:26:30;;;;;;;37.38;18.70;;;;;;;-4.14;31.94;100648.05;1816449;79;22336;-76
2021/01/18 03:28:58;;;;;;;37.45;17.50;;;;;;;-4.13;31.97;100642.39;1816242;78;21647;-77
2021/01/18 03:31:27;;;;;;;39.30;18.55;;;;;;;-4.12;32.02;100646.70;1815992;78;21505;-77
2021/01/18 03:33:55;;;;;;;35.17;16.50;;;;;;;-4.15;32.11;100641.12;1816695;78;21528;-76
2021/01/18 03:36:23;;;;;;;36.25;14.68;;;;;;;-4.17;32.12;100643.42;1816288;78;21181;-76
2021/01/18 03:38:51;;;;;;;31.70;15.50;;;;;;;-4.17;32.14;100649.95;1816441;78;21349;-78
2021/01/18 03:41:19;;;;;;;29.60;15.18;;;;;;;-4.17;32.15;100655.19;1816216;78;21224;-77
2021/01/18 03:43:47;;;;;;;33.58;15.88;;;;;;;-4.20;32.13;100651.38;1816438;79;21495;-76
2021/01/18 03:46:15;;;;;;;33.65;15.88;;;;;;;-4.20;32.21;100656.14;1816395;78;21161;-77
2021/01/18 03:48:44;;;;;;;31.35;16.37;;;;;;;-4.20;32.29;100659.22;1816474;78;21181;-77
2021/01/18 03:51:12;;;;;;;34.58;16.50;;;;;;;-4.22;32.38;100661.91;1816258;79;22515;-78
2021/01/18 03:53:41;;;;;;;31.15;15.58;;;;;;;-4.19;32.40;100659.15;1808781;78;21753;-77
2021/01/18 03:56:09;;;;;;;33.85;17.15;;;;;;;-4.18;32.44;100650.84;1800148;79;21090;-77
2021/01/18 03:58:39;;;;;;;31.65;16.02;;;;;;;-4.18;32.47;100653.45;1822809;78;21096;-78
2021/01/18 04:01:07;;;;;;;32.03;16.35;;;;;;;-4.16;32.49;100660.34;1794257;80;21325;-75
2021/01/18 04:03:35;;;;;;;32.95;15.13;;;;;;;-4.16;32.50;100658.19;1822793;78;21434;-78
2021/01/18 04:06:05;;;;;;;37.55;18.77;;;;;;;-4.18;32.54;100660.00;1824005;77;21200;-77
2021/01/18 04:08:33;;;;;;;32.60;16.27;;;;;;;-4.20;32.62;100667.06;1793938;78;21063;-77
2021/01/18 04:11:01;;;;;;;40.10;18.00;;;;;;;-4.19;32.67;100668.30;1789827;78;21202;-78
2021/01/18 04:13:29;;;;;;;36.95;17.62;;;;;;;-4.18;32.67;100660.00;1783217;80;21147;-78
2021/01/18 04:15:57;;;;;;;35.30;16.05;;;;;;;-4.17;32.71;100666.95;1783377;80;21692;-78
2021/01/18 04:18:26;;;;;;;39.58;17.45;;;;;;;-4.16;32.76;100672.12;1793490;80;21189;-76
2021/01/18 04:20:54;;;;;;;33.35;16.50;;;;;;;-4.15;32.78;100669.89;1793468;80;21452;-77
2021/01/18 04:23:22;;;;;;;39.83;18.10;;;;;;;-4.13;32.76;100673.77;1822764;78;21160;-78
2021/01/18 04:25:50;;;;;;;38.48;17.32;;;;;;;-4.15;32.76;100677.73;1822687;78;21263;-80
2021/01/18 04:28:18;;;;;;;38.28;16.35;;;;;;;-4.15;32.68;100676.42;1822458;78;21790;-79
2021/01/18 04:30:47;;;;;;;41.90;18.98;;;;;;;-4.21;32.71;100681.06;1822437;78;21153;-79
2021/01/18 04:33:15;;;;;;;35.43;16.45;;;;;;;-4.25;32.70;100688.63;1821841;78;21133;-78
2021/01/18 04:35:44;;;;;;;36.55;17.07;;;;;;;-4.30;32.73;100692.72;1822341;78;21176;-77
2021/01/18 04:38:12;;;;;;;36.90;17.67;;;;;;;-4.34;32.82;100691.13;1822133;78;21416;-77
2021/01/18 04:40:42;;;;;;;39.83;18.82;;;;;;;-4.34;32.85;100687.20;1822112;78;21849;-77
2021/01/18 04:43:13;;;;;;;38.55;19.30;;;;;;;-4.34;32.88;100689.36;1822168;78;21204;-77
2021/01/18 04:45:41;;;;;;;36.90;17.87;;;;;;;-4.33;32.85;100691.52;1822052;78;21165;-76
2021/01/18 04:48:11;;;;;;;39.55;18.65;;;;;;;-4.34;32.88;100693.75;1821967;78;21129;-77
2021/01/18 04:50:39;;;;;;;35.45;16.27;;;;;;;-4.37;32.92;100689.93;1793585;78;21168;-76
2021/01/18 04:53:18;;;;;;;36.93;19.55;;;;;;;-4.40;32.91;100702.68;1821989;78;21470;-76
2021/01/18 04:56:19;;;;;;;41.08;19.23;;;;;;;-4.42;32.96;100706.25;1821926;78;21450;-76
2021/01/18 04:58:47;;;;;;;32.65;15.88;;;;;;;-4.44;33.03;100706.77;1820268;77;21605;-76
2021/01/18 05:01:16;;;;;;;42.00;19.30;;;;;;;-4.48;33.05;100704.72;1768075;78;21201;-76
2021/01/18 05:03:45;;;;;;;39.30;17.73;;;;;;;-4.48;33.07;100702.56;1822536;78;21639;-77
2021/01/18 05:06:34;;;;;;;37.15;18.42;;;;;;;-4.47;33.14;100708.19;1795087;78;21254;-76
2021/01/18 05:09:18;;;;;;;35.73;17.92;;;;;;;-4.46;33.18;100704.20;1795485;78;21604;-79
2021/01/18 05:11:48;;;;;;;49.83;20.85;;;;;;;-4.41;33.16;100698.80;1822880;78;21410;-77
2021/01/18 05:14:17;;;;;;;35.60;16.77;;;;;;;-4.41;33.12;100707.95;1822744;78;21149;-78
2021/01/18 05:16:52;;;;;;;41.37;17.73;;;;;;;-4.41;33.12;100710.56;1825640;77;21200;-77
2021/01/18 05:19:22;;;;;;;32.33;16.23;;;;;;;-4.41;33.15;100710.56;1809767;78;21262;-76
2021/01/18 05:21:50;;;;;;;39.48;18.55;;;;;;;-4.40;33.14;100713.59;1813096;77;21655;-76
2021/01/18 05:24:19;;;;;;;37.93;18.80;;;;;;;-4.41;33.16;100705.33;1831131;77;21198;-75
2021/01/18 05:27:03;;;;;;;45.85;20.35;;;;;;;-4.40;33.22;100710.52;1827943;77;21097;-76
2021/01/18 05:29:35;;;;;;;45.45;21.27;;;;;;;-4.39;33.24;100717.91;1795149;77;21089;-79
2021/01/18 05:32:07;;;;;;;42.10;18.98;;;;;;;-4.35;33.26;100721.66;1798236;77;21369;-76
2021/01/18 05:34:37;;;;;;;36.30;17.10;;;;;;;-4.31;33.23;100715.87;1816348;78;21176;-77
2021/01/18 05:37:05;;;;;;;36.38;16.10;;;;;;;-4.30;33.31;100717.56;1820886;78;21160;-77
2021/01/18 05:39:33;;;;;;;31.00;14.58;;;;;;;-4.31;33.29;100726.75;1741286;78;21610;-77
2021/01/18 05:42:04;;;;;;;28.30;15.45;;;;;;;-4.34;33.27;100728.59;1821262;78;21152;-77
2021/01/18 05:44:36;;;;;;;33.00;15.60;;;;;;;-4.34;33.26;100731.66;1766561;78;21598;-77
2021/01/18 05:47:10;;;;;;;31.87;16.12;;;;;;;-4.37;33.25;100730.00;1815040;77;21175;-79
2021/01/18 05:49:47;;;;;;;35.78;15.68;;;;;;;-4.37;33.37;100733.07;1808165;78;21200;-75
2021/01/18 05:52:28;;;;;;;;;;;;;;;-4.38;33.42;100741.83;1806042;78;21236;-77
2021/01/18 05:55:23;;;;;;;29.92;15.03;;;;;;;-4.39;33.39;100738.83;1813635;78;20326;-79
2021/01/18 05:57:54;;;;;;;30.52;14.93;;;;;;;-4.43;33.44;100742.46;1693405;84;21384;-76
2021/01/18 06:00:29;;;;;;;28.90;13.98;;;;;;;-4.46;33.53;100743.88;1791437;78;21449;-76
2021/01/18 06:02:58;;;;;;;27.37;13.18;;;;;;;-4.45;33.51;100752.10;1820369;78;21140;-76
2021/01/18 06:05:31;;;;;;;30.43;13.28;;;;;;;-4.45;33.43;100750.38;1794963;78;21105;-78
2021/01/18 06:08:17;;;;;;;25.62;13.93;;;;;;;-4.45;33.47;100753.41;1855189;77;21186;-77
2021/01/18 06:10:50;;;;;;;27.55;12.82;;;;;;;-4.47;33.48;100756.09;1816644;77;22088;-77
2021/01/18 06:13:35;;;;;;;27.00;12.80;;;;;;;-4.43;33.50;100758.15;1801101;78;21204;-77
2021/01/18 06:16:06;;;;;;;26.05;12.90;;;;;;;-4.43;33.37;100754.22;1833375;77;21502;-78
2021/01/18 06:18:34;;;;;;;37.88;17.55;;;;;;;-4.45;33.35;100757.33;1803498;78;21208;-77
2021/01/18 06:21:05;;;;;;;31.73;15.28;;;;;;;-4.46;33.46;100756.48;1809224;78;21125;-77
2021/01/18 06:23:33;;;;;;;38.28;16.05;;;;;;;-4.46;33.43;100755.64;1809702;78;22253;-78
2021/01/18 06:26:01;;;;;;;39.18;18.48;;;;;;;-4.48;33.48;100762.23;1781401;78;21108;-75
2021/01/18 06:28:37;;;;;;;38.05;18.82;;;;;;;-4.49;33.53;100768.38;1810621;78;21154;-75
2021/01/18 06:31:11;;;;;;;40.08;16.97;;;;;;;-4.49;33.66;100755.31;1820289;77;21086;-76
2021/01/18 06:33:49;;;;;;;31.48;15.30;;;;;;;-4.44;33.66;100757.75;1805075;78;21112;-77
2021/01/18 06:36:24;;;;;;;33.78;16.62;;;;;;;-4.42;33.59;100754.16;1811191;78;21949;-77
2021/01/18 06:39:03;;;;;;;34.00;17.15;;;;;;;-4.42;33.57;100752.85;1818642;77;21001;-79
2021/01/18 06:41:35;;;;;;;38.65;17.25;;;;;;;-4.43;33.54;100750.30;1820139;77;21123;-77
2021/01/18 06:44:04;;;;;;;32.88;15.80;;;;;;;-4.45;33.44;100752.10;1810387;77;21463;-78
2021/01/18 06:46:37;;;;;;;40.38;19.55;;;;;;;-4.48;33.53;100754.85;1790290;79;21091;-76
2021/01/18 06:49:05;;;;;;;39.58;19.90;;;;;;;-4.48;33.58;100758.31;1801872;78;21365;-76
2021/01/18 06:51:35;;;;;;;39.15;19.00;;;;;;;-4.49;33.61;100757.08;1813562;78;21005;-77
2021/01/18 06:54:04;;;;;;;39.50;18.73;;;;;;;-4.48;33.75;100757.47;1825528;77;21101;-77
2021/01/18 06:56:45;;;;;;;36.20;17.90;;;;;;;-4.45;33.81;100754.72;1801385;78;21100;-76
2021/01/18 06:59:41;;;;;;;39.70;18.60;;;;;;;-4.43;33.65;100755.53;1806924;78;21078;-78
2021/01/18 07:02:23;;;;;;;37.30;17.55;;;;;;;-4.39;33.71;100761.05;1802690;78;22221;-77
2021/01/18 07:04:52;;;;;;;36.42;17.82;;;;;;;-4.36;33.61;100759.61;1771658;80;21128;-76
2021/01/18 07:07:26;;;;;;;38.73;17.48;;;;;;;-4.33;33.60;100756.89;1815404;77;21146;-76
2021/01/18 07:09:59;;;;;;;38.00;18.27;;;;;;;-4.27;33.70;100760.61;1814992;78;21385;-79
2021/01/18 07:12:28;;;;;;;43.85;19.48;;;;;;;-4.13;33.66;100759.64;1810121;78;21585;-79
2021/01/18 07:15:05;;;;;;;40.75;17.77;;;;;;;-4.00;33.57;100757.38;1809494;78;21204;-76
2021/01/18 07:17:53;;;;;;;33.95;16.65;;;;;;;-3.85;33.48;100760.73;1813605;78;21116;-77
2021/01/18 07:20:27;;;;;;;39.95;19.42;;;;;;;-3.74;33.29;100759.00;1817033;78;21149;-78
2021/01/18 07:23:25;;;;;;;37.23;17.35;;;;;;;-3.67;33.02;100757.01;1804985;78;21113;-78
2021/01/18 07:26:32;;;;;;;39.18;18.05;;;;;;;-3.62;32.89;100759.84;1812187;78;21231;-77
2021/01/18 07:29:06;;;;;;;39.53;19.42;;;;;;;-3.62;32.81;100763.77;1799757;78;21372;-76
2021/01/18 07:31:36;;;;;;;44.00;19.00;;;;;;;-3.60;32.87;100760.61;1810607;78;21203;-77
2021/01/18 07:34:04;;;;;;;41.60;20.17;;;;;;;-3.55;32.80;100770.05;1816008;77;21228;-80
2021/01/18 07:36:33;;;;;;;36.45;18.12;;;;;;;-3.49;32.88;100761.97;1806279;78;21189;-79
2021/01/18 07:39:01;;;;;;;38.45;18.77;;;;;;;-3.40;32.79;100770.31;1811499;78;21191;-77
2021/01/18 07:41:35;;;;;;;33.67;17.00;;;;;;;-3.34;32.60;100769.20;1814927;78;21384;-75
2021/01/18 07:44:05;;;;;;;40.73;20.00;;;;;;;-3.30;32.56;100764.23;1808364;78;21219;-77
2021/01/18 07:46:36;;;;;;;40.78;18.80;;;;;;;-3.28;32.50;100766.32;1789290;78;21171;-77
2021/01/18 07:49:24;;;;;;;33.88;17.12;;;;;;;-3.31;32.41;100767.77;1812340;78;21138;-77
2021/01/18 07:52:17;;;;;;;34.88;16.52;;;;;;;-3.32;32.32;100766.05;1837603;77;21287;-78
2021/01/18 07:54:45;;;;;;;36.77;17.00;;;;;;;-3.36;32.21;100774.52;1823263;78;21212;-77
2021/01/18 07:57:33;;;;;;;35.15;17.55;;;;;;;-3.39;32.11;100780.33;1811491;78;21664;-80
2021/01/18 08:00:23;;;;;;;45.73;20.12;;;;;;;-3.43;32.13;100783.98;1808169;78;21205;-79
2021/01/18 08:03:10;;;;;;;35.45;17.07;;;;;;;-3.45;32.23;100795.83;1829132;77;21634;-78
2021/01/18 08:05:41;;;;;;;38.42;19.42;;;;;;;-3.45;32.25;100790.59;1796355;78;21181;-78
2021/01/18 08:08:15;;;;;;;40.23;18.57;;;;;;;-3.47;32.27;100794.17;1809339;78;39078;-79
2021/01/18 08:11:02;;;;;;;39.73;20.30;;;;;;;-3.42;32.48;100804.00;1809784;78;21215;-79
2021/01/18 08:13:50;;;;;;;40.52;19.52;;;;;;;-3.34;32.50;100805.87;1826217;77;21205;-78
2021/01/18 08:16:28;;;;;;;39.20;20.50;;;;;;;-3.18;32.55;100805.66;1866732;76;22171;-77
2021/01/18 08:19:19;;;;;;;37.33;19.50;;;;;;;-3.11;32.21;100805.78;1859807;75;21176;-78
2021/01/18 08:22:02;;;;;;;37.13;18.80;;;;;;;-2.98;32.11;100803.98;1813982;77;21441;-78
2021/01/18 08:24:35;;;;;;;34.58;18.55;;;;;;;-2.96;31.93;100816.55;1832929;77;21625;-80
2021/01/18 08:27:06;;;;;;;37.90;19.67;;;;;;;-2.89;31.73;100812.77;1840904;77;21117;-78
2021/01/18 08:29:52;;;;;;;35.43;16.93;;;;;;;-2.84;31.86;100810.80;1833772;77;21078;-77
2021/01/18 08:32:34;;;;;;;28.73;15.88;;;;;;;-2.74;31.69;100815.19;1844859;77;21573;-78
2021/01/18 08:35:22;;;;;;;38.25;18.17;;;;;;;-2.69;31.57;100811.45;1843201;77;21185;-76
2021/01/18 08:38:01;;;;;;;31.70;17.35;;;;;;;-2.62;31.55;100808.98;1857644;76;21105;-77
2021/01/18 08:40:34;;;;;;;28.00;13.83;;;;;;;-2.57;31.53;100804.38;1871575;75;21113;-77
2021/01/18 08:43:03;;;;;;;30.88;15.03;;;;;;;-2.56;31.34;100802.14;1861811;76;21292;-77
2021/01/18 08:45:40;;;;;;;30.60;16.55;;;;;;;-2.60;31.26;100799.26;1857179;76;21690;-77
2021/01/18 08:48:12;;;;;;;27.00;14.95;;;;;;;-2.61;31.36;100802.80;1825082;77;21376;-79
2021/01/18 08:50:46;;;;;;;32.63;16.35;;;;;;;-2.62;31.31;100795.86;1790964;77;21201;-75
2021/01/18 08:53:26;;;;;;;35.08;16.30;;;;;;;-2.64;31.28;100787.20;1828920;77;21085;-76
2021/01/18 08:55:55;;;;;;;34.40;18.12;;;;;;;-2.66;31.25;100775.94;1846715;77;21547;-78
2021/01/18 08:58:41;;;;;;;27.20;13.80;;;;;;;-2.67;31.23;100772.08;1797504;77;21110;-78
2021/01/18 09:01:21;;;;;;;32.53;15.45;;;;;;;-2.68;31.27;100771.66;1805476;78;21281;-77
2021/01/18 09:04:06;;;;;;;33.58;16.85;;;;;;;-2.69;31.34;100768.66;1827464;77;21212;-79
2021/01/18 09:06:35;;;;;;;30.57;15.78;;;;;;;-2.70;31.25;100784.00;1833750;77;21192;-78
2021/01/18 09:09:07;;;;;;;31.00;15.90;;;;;;;-2.72;31.44;100784.08;1805434;76;21565;-77
2021/01/18 09:11:39;;;;;;;34.35;17.57;;;;;;;-2.70;31.47;100783.53;1840893;76;21722;-78
2021/01/18 09:14:08;;;;;;;34.33;17.02;;;;;;;-2.67;31.40;100770.77;1816480;77;23061;-76
2021/01/18 09:16:41;;;;;;;31.42;16.20;;;;;;;-2.68;31.43;100769.04;1804423;77;21236;-78
2021/01/18 09:19:10;;;;;;;38.60;17.73;;;;;;;-2.65;31.58;100765.83;1834619;76;21740;-79
2021/01/18 09:21:37;;;;;;;30.23;14.55;;;;;;;-2.62;31.54;100761.77;1833150;76;21189;-76
2021/01/18 09:24:07;;;;;;;34.63;17.52;;;;;;;-2.61;31.44;100758.23;1814362;77;21626;-77
2021/01/18 09:26:35;;;;;;;30.37;14.95;;;;;;;-2.60;31.58;100759.92;1829921;77;21410;-80
2021/01/18 09:29:03;;;;;;;34.58;17.05;;;;;;;-2.60;31.54;100759.08;1807729;76;21353;-77
2021/01/18 09:31:31;;;;;;;31.05;15.05;;;;;;;-2.59;31.47;100762.96;1833313;76;21221;-77
2021/01/18 09:34:12;;;;;;;28.92;15.08;;;;;;;-2.57;31.48;100753.70;1834651;77;21339;-75
2021/01/18 09:36:43;;;;;;;35.88;17.82;;;;;;;-2.59;31.45;100747.23;1840565;77;21595;-77
2021/01/18 09:39:19;;;;;;;28.15;14.43;;;;;;;-2.59;31.49;100748.54;1836713;76;21197;-77
2021/01/18 09:41:51;;;;;;;29.55;14.53;;;;;;;-2.58;31.49;100755.48;1834920;77;21198;-77
2021/01/18 09:44:19;;;;;;;35.70;15.50;;;;;;;-2.56;31.58;100752.78;1838636;76;21636;-76
2021/01/18 09:46:47;;;;;;;37.20;18.48;;;;;;;-2.52;31.68;100753.50;1832998;76;21545;-78
2021/01/18 09:49:26;;;;;;;33.67;18.52;;;;;;;-2.48;31.63;100755.08;1792804;77;21121;-77
2021/01/18 09:51:56;;;;;;;33.80;15.85;;;;;;;-2.51;31.54;100750.80;1835522;77;21356;-79
2021/01/18 09:54:23;;;;;;;35.20;17.45;;;;;;;-2.51;31.29;100745.55;1808622;78;21214;-77
2021/01/18 09:56:53;;;;;;;32.80;16.97;;;;;;;-2.55;31.32;100744.84;1836815;77;21117;-79
2021/01/18 09:59:21;;;;;;;31.42;14.30;;;;;;;-2.52;31.43;100748.26;1831271;77;21130;-76
2021/01/18 10:01:52;;;;;;;33.05;17.02;;;;;;;-2.50;31.29;100740.70;1846396;77;21172;-79
2021/01/18 10:04:24;;;;;;;32.53;16.30;;;;;;;-2.47;31.50;100746.28;1804604;77;22241;-78
2021/01/18 10:06:56;;;;;;;30.52;15.65;;;;;;;-2.42;31.19;100747.77;1839114;76;21164;-77
2021/01/18 10:09:24;;;;;;;30.92;15.75;;;;;;;-2.37;31.25;100742.31;1848991;76;21173;-75
2021/01/18 10:11:52;;;;;;;27.82;14.43;;;;;;;-2.32;31.21;100745.58;1818834;77;21745;-78
2021/01/18 10:14:25;;;;;;;36.15;18.40;;;;;;;-2.30;31.14;100743.75;1772486;76;22341;-77
2021/01/18 10:17:06;;;;;;;30.12;16.12;;;;;;;-2.28;31.42;100737.97;1828629;76;21334;-78
2021/01/18 10:19:38;;;;;;;26.73;14.98;;;;;;;-2.17;31.51;100745.37;1824304;77;21189;-77
2021/01/18 10:22:17;;;;;;;28.75;15.03;;;;;;;-2.08;31.28;100737.07;1838899;76;21516;-78
2021/01/18 10:24:55;;;;;;;34.63;16.17;;;;;;;-2.02;31.33;100743.80;1835881;76;21081;-80
2021/01/18 10:27:28;;;;;;;31.23;16.55;;;;;;;-1.99;31.08;100747.61;1803967;77;21128;-76
2021/01/18 10:30:13;;;;;;;32.10;16.30;;;;;;;-1.97;31.34;100747.91;1834253;77;21193;-78
2021/01/18 10:32:46;;;;;;;33.95;16.48;;;;;;;-1.92;31.16;100749.00;1829459;76;21188;-77
2021/01/18 10:35:29;;;;;;;24.72;14.60;;;;;;;-1.90;31.08;100743.23;1856183;76;21486;-78
2021/01/18 10:38:14;;;;;;;33.60;16.00;;;;;;;-1.85;31.18;100739.47;1856582;76;21193;-76
2021/01/18 10:40:45;;;;;;;63.48;25.00;;;;;;;-1.77;31.06;100740.86;1839302;77;21087;-78
2021/01/18 10:43:17;;;;;;;44.10;19.30;;;;;;;-1.71;30.91;100743.22;1836708;77;21189;-76
2021/01/18 10:45:45;;;;;;;35.60;18.27;;;;;;;-1.69;30.90;100735.63;1806353;77;21176;-77
2021/01/18 10:48:13;;;;;;;31.87;15.03;;;;;;;-1.65;30.81;100734.56;1833622;77;21169;-79
2021/01/18 10:50:43;;;;;;;28.45;15.28;;;;;;;-1.64;30.68;100728.38;1790723;77;21200;-76
2021/01/18 10:53:11;;;;;;;33.30;15.58;;;;;;;-1.64;30.62;100726.22;1839792;76;21563;-78
2021/01/18 10:55:40;;;;;;;30.62;15.60;;;;;;;-1.77;30.62;100715.48;1830544;77;22717;-77
2021/01/18 10:58:10;;;;;;;31.35;17.25;;;;;;;-1.83;30.71;100715.75;1824259;77;21223;-79
2021/01/18 11:00:41;;;;;;;35.90;18.65;;;;;;;-1.91;30.97;100713.95;1836199;76;21184;-79
2021/01/18 11:03:08;;;;;;;38.80;17.37;;;;;;;-1.99;30.97;100710.86;1866529;76;21165;-77
2021/01/18 11:05:39;;;;;;;30.65;15.43;;;;;;;-2.05;31.26;100702.78;1818017;77;21154;-76
2021/01/18 11:08:08;;;;;;;25.40;13.45;;;;;;;-2.06;31.36;100701.94;1802358;77;21379;-76
2021/01/18 11:10:42;;;;;;;29.15;14.63;;;;;;;-2.06;31.26;100703.25;1836830;76;21121;-82
2021/01/18 11:13:16;;;;;;;34.58;16.90;;;;;;;-2.13;31.15;100705.79;1831296;77;21114;-76
2021/01/18 11:15:47;;;;;;;37.88;16.37;;;;;;;-2.19;31.32;100704.74;1803653;77;21097;-75
2021/01/18 11:18:17;;;;;;;37.48;17.67;;;;;;;-2.21;31.41;100705.29;1832172;77;21081;-80
2021/01/18 11:20:53;;;;;;;30.08;16.23;;;;;;;-2.23;31.41;100704.95;1792612;77;21373;-76
2021/01/18 11:23:21;;;;;;;31.60;16.07;;;;;;;-2.25;31.43;100698.95;1827103;77;21185;-76
2021/01/18 11:25:49;;;;;;;34.13;17.25;;;;;;;-2.23;31.51;100694.46;1823104;77;21621;-78
2021/01/18 11:28:18;;;;;;;38.35;17.42;;;;;;;-2.23;31.46;100691.37;1853842;76;21192;-77
2021/01/18 11:30:47;;;;;;;29.87;16.65;;;;;;;-2.19;31.48;100695.56;1827790;77;21167;-76
2021/01/18 11:33:16;;;;;;;33.25;17.42;;;;;;;-2.21;31.49;100697.88;1790006;77;22628;-78
2021/01/18 11:35:49;;;;;;;35.23;16.37;;;;;;;-2.24;31.43;100690.98;1838340;77;21148;-76
2021/01/18 11:38:27;;;;;;;31.52;15.43;;;;;;;-2.21;31.49;100690.01;1797020;77;21116;-77